createdAt,value
2023-04-05T00:05:40.045Z,5.64
2023-04-05T00:15:38.892Z,3.26
2023-04-05T00:25:37.943Z,5.44
2023-04-05T00:35:37.000Z,5.53
2023-04-05T00:45:36.232Z,4.74
2023-04-05T00:55:35.008Z,5.03
2023-04-05T01:05:33.966Z,3.85
2023-04-05T01:15:32.919Z,3.25
2023-04-05T01:25:32.474Z,3.16
2023-04-05T01:35:32.260Z,4.04
2023-04-05T01:45:31.457Z,3.06
2023-04-05T01:55:30.963Z,3.85
2023-04-05T02:05:30.532Z,4.15
2023-04-05T02:15:31.687Z,3.95
2023-04-05T02:25:31.467Z,3.66
2023-04-05T02:35:31.118Z,4.15
2023-04-05T02:45:32.544Z,4.45
2023-04-05T02:55:33.999Z,5.54
2023-04-05T03:05:33.690Z,4.06
2023-04-05T03:15:34.866Z,4.45
2023-04-05T03:25:34.572Z,3.66
2023-04-05T03:35:34.695Z,6.93
2023-04-05T03:45:34.706Z,4.75
2023-04-05T03:55:35.781Z,10.69
2023-04-05T04:05:37.022Z,3.86
2023-04-05T04:15:53.006Z,6.63
2023-04-05T04:26:12.455Z,6.73
2023-04-05T04:36:31.911Z,5.94
2023-04-05T04:46:43.882Z,7.43
2023-04-05T04:56:42.969Z,4.65
2023-04-05T05:06:41.985Z,4.26
2023-04-05T05:16:41.161Z,3.76
2023-04-05T05:26:40.312Z,5.44
2023-04-05T05:36:39.078Z,7.42
2023-04-05T05:46:38.626Z,4.35
2023-04-05T05:56:38.102Z,6.33
2023-04-05T06:06:37.967Z,3.56
2023-04-05T06:16:37.098Z,3.96
2023-04-05T06:26:36.153Z,6.82
2023-04-05T06:36:35.511Z,4.65
2023-04-05T06:46:34.027Z,4.25
2023-04-05T06:56:33.088Z,5.84
2023-04-05T07:06:34.108Z,8.62
2023-04-05T07:16:33.093Z,3.86
2023-04-05T07:26:34.432Z,7.24
2023-04-05T07:36:34.152Z,8.34
2023-04-05T07:46:34.180Z,7.95
2023-04-05T07:56:33.065Z,4.67
2023-04-05T08:06:32.050Z,8.75
2023-04-05T08:16:31.090Z,9.15
2023-04-05T08:26:30.157Z,5.97
2023-04-05T08:36:29.090Z,4.58
2023-04-05T08:46:28.174Z,13.34
2023-04-05T08:56:27.363Z,4.69
2023-04-05T09:06:28.315Z,5.39
2023-04-05T09:16:27.182Z,8.87
2023-04-05T09:26:28.516Z,5.39
2023-04-05T09:36:28.408Z,4.59
2023-04-05T09:46:27.054Z,10.98
2023-04-05T09:56:26.093Z,9.89
2023-04-05T10:06:25.706Z,7.79
2023-04-05T10:16:25.445Z,8.09
2023-04-05T10:26:25.015Z,7.29
2023-04-05T10:36:24.399Z,8.69
2023-04-05T10:46:23.177Z,8.19
2023-04-05T10:56:22.344Z,4.80
2023-04-05T11:06:21.349Z,8.20
2023-04-05T11:16:20.522Z,8.99
2023-04-05T11:26:19.043Z,11.20
2023-04-05T11:36:18.081Z,11.19
2023-04-05T11:46:18.090Z,11.90
2023-04-05T11:56:18.740Z,11.89
2023-04-05T12:06:18.180Z,23.49
2023-04-05T12:16:17.153Z,14.60
2023-04-05T12:26:16.237Z,19.99
2023-04-05T12:36:15.463Z,16.90
2023-04-05T12:46:14.188Z,15.00
2023-04-05T12:56:14.576Z,25.29
2023-04-05T13:06:13.197Z,17.00
2023-04-05T13:16:12.309Z,27.59
2023-04-05T13:26:11.201Z,16.90
2023-04-05T13:36:11.873Z,30.99
2023-04-05T13:46:11.280Z,22.00
2023-04-05T13:56:10.281Z,25.10
2023-04-05T14:06:09.342Z,24.70
2023-04-05T14:16:08.295Z,11.90
2023-04-05T14:26:07.178Z,18.80
2023-04-05T14:36:06.290Z,19.50
2023-04-05T14:46:05.336Z,21.00
2023-04-05T14:56:04.237Z,21.50
2023-04-05T15:06:03.285Z,15.70
2023-04-05T15:16:02.232Z,20.10
2023-04-05T15:26:01.248Z,16.40
2023-04-05T15:36:00.621Z,22.10
2023-04-05T15:46:00.261Z,12.10
2023-04-05T15:55:59.339Z,12.70
2023-04-05T16:05:58.278Z,12.70
2023-04-05T16:15:57.367Z,11.70
2023-04-05T16:25:56.241Z,11.10
2023-04-05T16:35:56.539Z,9.10
2023-04-05T16:45:55.687Z,15.90
2023-04-05T16:55:54.339Z,17.20
2023-04-05T17:05:53.273Z,20.00
2023-04-05T17:15:52.348Z,13.90
2023-04-05T17:25:51.510Z,3.60
2023-04-05T17:35:50.321Z,12.30
2023-04-05T17:45:49.312Z,12.80
2023-04-05T17:55:48.509Z,12.00
2023-04-05T18:05:47.346Z,12.10
2023-04-05T18:15:46.949Z,8.70
2023-04-05T18:25:47.272Z,8.70
2023-04-05T18:35:46.499Z,9.30
2023-04-05T18:45:45.517Z,8.40
2023-04-05T18:55:44.592Z,6.60
2023-04-05T19:05:43.565Z,5.90
2023-04-05T19:15:42.450Z,11.99
2023-04-05T19:25:41.388Z,11.29
2023-04-05T19:35:40.845Z,14.49
2023-04-05T19:45:39.540Z,8.99
2023-04-05T19:55:38.605Z,5.49
2023-04-05T20:05:37.637Z,7.59
2023-04-05T20:15:36.596Z,5.79
2023-04-05T20:25:35.495Z,9.09
2023-04-05T20:35:34.715Z,6.29
2023-04-05T20:45:33.498Z,6.19
2023-04-05T20:55:32.496Z,4.99
2023-04-05T21:05:31.517Z,4.19
2023-04-05T21:15:31.255Z,4.69
2023-04-05T21:25:30.941Z,5.58
2023-04-05T21:35:29.717Z,5.98
2023-04-05T21:45:28.524Z,6.88
2023-04-05T21:55:27.627Z,8.37
2023-04-05T22:05:37.880Z,5.78
2023-04-05T22:15:30.581Z,7.17
2023-04-05T22:25:29.611Z,4.08
2023-04-05T22:35:28.650Z,4.48
2023-04-05T22:45:28.396Z,7.47
2023-04-05T22:55:27.561Z,4.98
2023-04-05T23:05:26.619Z,13.74
2023-04-05T23:15:25.737Z,5.47
2023-04-05T23:25:24.805Z,7.16
2023-04-05T23:35:23.826Z,5.17
2023-04-05T23:45:22.606Z,7.26
2023-04-05T23:55:21.707Z,5.67
